Pagrindinis puslapis
METAR-TAF:

METAR-TAF

Oro uostai :

Nadžranas, Saudo Arabija

platuma: 17-37N, ilguma: 044-25E, Aukštis: 1212 m

Dabartinis oras

Ataskaita buvo paskelbta 33 minutes, ne 20:00 UTC
Vėjas 5 kt iš Rytų/Šiaurės Rytų
Temperatūra 31°C
Drėgmė 18%
Slėgis 1012 hPa
Matomumas: 7000 m
Giedras dangus

METAR: OENG 172000Z 07005KT 7000 SKC 31/04 Q1012 NOSIG

Laikas: 23:33 (20:33 UTC)

Prognozė

Ataskaita buvo paskelbta 9 valandos ir 33 minutes, ne 11:00 UTC
Prognozė galioja nuo 17 metu 12 UTC su 18 metu 18 UTC
Vėjas 8 kt iš Šiaurės/Šiaurės Rytų su gūsio iki 18 kt
Matomumas: 7000 m
Mažai debesys ne aukštis 3000 ft
Išsisklaidę debesys ne aukštis 9000 ft
Laikinai
nuo 17 metu 12 UTC su 17 metu 18 UTC
Matomumas: 4000 m
dulkės, Dulkes pustymas

TAF: OENG 171100Z 1712/1818 03008G18KT 7000 FEW030 SCT090 TEMPO 1712/1718 4000 DU BLDU

Orai ataskaitas ir orų prognozės (METAR, TAF).

turimą stotys yra geltonos ir raudonos taškus žemėlapyje.

Perkelti pele per norėdami pamatyti stoties vardą.

Tada spustelėkite, norėdami matyti oro stebėjimo ir prognozės.

Norėdami pakeisti žemėlapį: spustelėkite ant žalios mygtukų su juodo kryžiaus žemyn,; žalią mygtuką su brūkšneliu, jei norite nutolinti; arba žalių rodyklių gretimoms žemėlapius.


METAR-TAF: